Time;durP1;ratioP1;P1;durP2;ratioP2;P2;SDS_P1;SDS_P2;PMS_P1;PMS_P2;Temp;Humidity;BMP_temperature;BMP_pressure;BME280_temperature;BME280_humidity;BME280_pressure;Samples;Min_cycle;Max_cycle;Signal;HPM_P1;HPM_P2
2022/11/25 00:02:23;;;;;;;0.20;0.20;;;;;;;8.40;72.21;100539.97;5168764;28;20060;-86
2022/11/25 00:04:54;;;;;;;0.40;0.40;;;;;;;8.37;73.30;100541.78;5133511;28;20580;-87
2022/11/25 00:07:24;;;;;;;0.28;0.28;;;;;;;8.32;73.99;100547.13;5154418;28;20034;-87
2022/11/25 00:09:55;;;;;;;0.47;0.47;;;;;;;8.34;74.06;100546.22;5176546;28;20042;-88
2022/11/25 00:12:25;;;;;;;0.25;0.25;;;;;;;8.35;73.03;100542.69;5156167;28;20018;-87
2022/11/25 00:14:56;;;;;;;0.63;0.63;;;;;;;8.29;73.71;100534.13;5203471;28;20032;-87
2022/11/25 00:17:26;;;;;;;2.28;1.50;;;;;;;8.37;74.00;100534.81;5203156;28;20037;-86
2022/11/25 00:20:00;;;;;;;0.30;0.30;;;;;;;8.40;74.17;100531.28;5201076;28;20056;-87
2022/11/25 00:22:30;;;;;;;0.30;0.30;;;;;;;8.39;74.10;100527.78;5165295;28;20030;-87
2022/11/25 00:25:01;;;;;;;0.30;0.30;;;;;;;8.49;73.78;100518.88;5166229;28;20397;-87
2022/11/25 00:27:31;;;;;;;2.45;0.95;;;;;;;8.45;73.86;100519.84;5135305;28;20019;-90
2022/11/25 00:30:03;;;;;;;0.30;0.30;;;;;;;8.53;74.66;100518.84;5130722;28;21458;-86
2022/11/25 00:32:33;;;;;;;0.45;0.45;;;;;;;8.45;75.94;100512.00;5168098;28;20069;-87
2022/11/25 00:35:04;;;;;;;0.30;0.30;;;;;;;8.45;75.37;100512.00;5163621;28;20062;-87
2022/11/25 00:37:34;;;;;;;0.32;0.32;;;;;;;8.50;75.62;100504.09;5167142;28;20030;-87
2022/11/25 00:40:06;;;;;;;0.82;0.82;;;;;;;8.50;75.50;100504.09;5165542;28;20050;-87
2022/11/25 00:45:25;;;;;;;0.65;0.65;;;;;;;8.46;75.75;100508.50;5148790;28;20535;-88
2022/11/25 00:47:55;;;;;;;2.60;0.55;;;;;;;8.55;75.58;100506.59;5146140;28;20036;-86
2022/11/25 00:50:26;;;;;;;0.30;0.30;;;;;;;8.55;76.07;100507.44;5160407;28;20062;-88
2022/11/25 00:52:57;;;;;;;0.50;0.50;;;;;;;8.51;76.08;100503.19;5146000;28;20125;-85
2022/11/25 00:56:11;;;;;;;0.30;0.30;;;;;;;8.53;75.77;100497.91;5183138;28;20040;-87
2022/11/25 00:58:20;;;;;;;0.30;0.30;;;;;;;8.53;76.23;100508.38;5170198;28;20502;-87
2022/11/25 01:00:51;;;;;;;0.30;0.30;;;;;;;8.60;75.71;100508.19;5164078;28;20043;-87
2022/11/25 01:03:21;;;;;;;8.25;2.10;;;;;;;8.60;75.96;100507.34;5146351;28;20088;-85
2022/11/25 01:05:52;;;;;;;0.30;0.30;;;;;;;8.54;76.48;100507.50;5133520;28;20041;-87
2022/11/25 01:08:22;;;;;;;0.30;0.30;;;;;;;8.56;76.47;100510.91;5165199;28;20034;-87
2022/11/25 01:11:04;;;;;;;0.90;0.50;;;;;;;8.59;76.32;100509.13;5162235;28;20046;-88
2022/11/25 01:13:35;;;;;;;0.75;0.75;;;;;;;8.71;75.88;100501.88;5162793;28;20041;-87
2022/11/25 01:16:08;;;;;;;1.40;1.30;;;;;;;8.63;76.49;100499.44;5147771;28;20038;-88
2022/11/25 01:18:38;;;;;;;1.95;1.65;;;;;;;8.65;76.42;100497.63;5177429;28;20092;-88
2022/11/25 01:21:22;;;;;;;2.05;1.95;;;;;;;8.70;76.84;100506.25;5164431;28;20033;-87
2022/11/25 01:23:53;;;;;;;0.30;0.30;;;;;;;8.64;77.07;100502.00;5167335;28;20450;-87
2022/11/25 01:26:24;;;;;;;0.65;0.65;;;;;;;8.70;76.94;100500.13;5181149;28;20065;-87
2022/11/25 01:29:00;;;;;;;1.75;1.08;;;;;;;8.72;76.61;100504.44;5132892;28;20065;-85
2022/11/25 01:31:34;;;;;;;1.20;1.20;;;;;;;8.73;76.36;100503.53;5164165;28;20030;-86
2022/11/25 01:34:11;;;;;;;;;;;;;;;8.75;76.59;100514.00;5183795;28;20026;-88
2022/11/25 01:36:41;;;;;;;0.38;0.38;;;;;;;8.74;76.35;100507.88;5168124;28;19917;-87
2022/11/25 01:39:16;;;;;;;0.40;0.40;;;;;;;8.73;76.66;100511.41;5164323;28;20091;-87
2022/11/25 01:41:48;;;;;;;0.30;0.30;;;;;;;8.76;76.76;100502.63;5146407;28;20038;-87
2022/11/25 01:44:26;;;;;;;0.35;0.35;;;;;;;8.78;76.72;100506.06;5152628;28;20058;-87
2022/11/25 01:46:59;;;;;;;0.93;0.93;;;;;;;8.79;77.16;100495.56;5145912;28;20092;-87
2022/11/25 01:49:30;;;;;;;;;;;;;;;8.78;76.77;100504.31;5172047;28;20045;-87
2022/11/25 01:52:00;;;;;;;0.35;0.35;;;;;;;8.82;76.68;100503.34;5149809;28;20028;-87
2022/11/25 01:54:36;;;;;;;0.80;0.65;;;;;;;8.85;77.36;100505.00;5148585;28;20026;-87
2022/11/25 01:57:12;;;;;;;0.30;0.30;;;;;;;8.84;77.03;100502.44;5149100;28;20044;-87
2022/11/25 01:59:48;;;;;;;3.33;1.73;;;;;;;8.84;77.77;100489.38;5165125;28;20093;-86
2022/11/25 02:02:20;;;;;;;0.43;0.43;;;;;;;8.81;77.51;100496.38;5165608;28;20030;-87
2022/11/25 02:04:51;;;;;;;0.30;0.30;;;;;;;8.84;77.03;100497.22;5150457;28;20106;-87
2022/11/25 02:07:35;;;;;;;0.30;0.30;;;;;;;8.90;76.90;100489.22;5167671;28;20073;-88
2022/11/25 02:10:20;;;;;;;0.32;0.32;;;;;;;8.91;76.98;100493.56;5142207;28;20042;-87
2022/11/25 02:12:51;;;;;;;1.85;0.98;;;;;;;8.86;77.06;100490.19;5136683;28;20294;-87
2022/11/25 02:15:22;;;;;;;0.63;0.63;;;;;;;8.85;77.30;100494.56;5152808;28;20053;-88
2022/11/25 02:17:53;;;;;;;1.52;1.27;;;;;;;8.93;76.78;100492.59;5183089;28;20041;-87
2022/11/25 02:20:24;;;;;;;0.52;0.52;;;;;;;8.93;76.91;100486.53;5182540;28;20046;-87
2022/11/25 02:23:25;;;;;;;0.40;0.40;;;;;;;8.95;77.35;100489.97;5169825;28;20141;-87
2022/11/25 02:25:55;;;;;;;0.73;0.73;;;;;;;8.93;77.14;100486.53;5153550;28;20221;-87
2022/11/25 02:28:29;;;;;;;0.52;0.52;;;;;;;8.93;77.06;100492.59;5152667;28;20052;-86
2022/11/25 02:31:00;;;;;;;0.20;0.20;;;;;;;8.93;77.45;100495.22;5143360;28;20049;-87
2022/11/25 02:33:31;;;;;;;0.20;0.20;;;;;;;8.97;77.04;100488.16;5182955;28;20113;-88
2022/11/25 02:36:11;;;;;;;1.27;0.95;;;;;;;8.95;77.38;100495.22;5167460;28;20079;-87
2022/11/25 02:38:51;;;;;;;1.20;1.20;;;;;;;8.98;76.84;100495.13;5150866;28;20326;-88
2022/11/25 02:41:35;;;;;;;2.03;1.65;;;;;;;9.06;77.50;100506.25;5140030;28;20125;-87
2022/11/25 02:44:06;;;;;;;0.30;0.30;;;;;;;8.97;77.55;100506.47;5176867;28;20156;-86
2022/11/25 02:46:37;;;;;;;0.30;0.30;;;;;;;9.01;77.18;100505.53;5152292;28;20108;-88
2022/11/25 02:49:07;;;;;;;0.30;0.30;;;;;;;9.04;76.69;100513.31;5152742;28;20035;-87
2022/11/25 02:51:40;;;;;;;0.35;0.35;;;;;;;9.08;76.49;100519.34;5150410;28;20034;-87
2022/11/25 02:54:14;;;;;;;0.50;0.50;;;;;;;9.05;76.85;100516.78;5152566;28;20029;-90
2022/11/25 02:56:45;;;;;;;0.20;0.20;;;;;;;9.00;76.77;100516.88;5132409;28;20485;-88
2022/11/25 02:59:15;;;;;;;0.20;0.20;;;;;;;9.13;76.82;100526.16;5134754;28;20030;-87
2022/11/25 03:01:46;;;;;;;0.85;0.85;;;;;;;9.05;77.21;100519.41;5165264;28;20046;-86
2022/11/25 03:04:16;;;;;;;0.88;0.88;;;;;;;9.09;76.71;100521.06;5168352;28;20038;-87
2022/11/25 03:06:47;;;;;;;0.40;0.40;;;;;;;9.14;76.67;100521.78;5146004;28;20034;-87
2022/11/25 03:09:17;;;;;;;0.30;0.30;;;;;;;9.12;76.83;100519.22;5148950;28;20019;-88
2022/11/25 03:14:37;;;;;;;0.40;0.40;;;;;;;9.14;76.44;100517.41;5166889;28;20107;-87
2022/11/25 03:17:07;;;;;;;0.35;0.35;;;;;;;9.06;76.81;100513.25;5153022;28;20038;-87
2022/11/25 03:19:38;;;;;;;0.30;0.30;;;;;;;9.10;76.82;100520.13;5163288;28;20042;-86
2022/11/25 03:22:08;;;;;;;0.75;0.75;;;;;;;9.23;76.92;100512.84;5151942;28;20039;-87
2022/11/25 03:24:39;;;;;;;0.73;0.57;;;;;;;9.11;76.82;100524.47;5135802;28;20053;-87
2022/11/25 03:27:09;;;;;;;1.08;0.93;;;;;;;9.10;76.46;100521.00;5166656;28;20339;-88
2022/11/25 03:29:40;;;;;;;0.50;0.50;;;;;;;9.15;76.51;100520.91;5135245;28;20049;-87
2022/11/25 03:32:10;;;;;;;0.43;0.38;;;;;;;9.11;77.27;100530.59;5136518;28;20057;-86
2022/11/25 03:34:41;;;;;;;0.43;0.43;;;;;;;9.18;76.67;100533.03;5145572;28;20030;-87
2022/11/25 03:37:11;;;;;;;0.20;0.20;;;;;;;9.18;76.83;100538.28;5133696;28;20030;-87
2022/11/25 03:39:41;;;;;;;3.03;0.85;;;;;;;9.11;76.96;100546.28;5146884;28;20057;-87
2022/11/25 03:42:12;;;;;;;0.40;0.40;;;;;;;9.13;76.82;100541.00;5147477;28;20456;-87
2022/11/25 03:44:43;;;;;;;0.38;0.38;;;;;;;9.16;76.82;100547.91;5182418;28;20519;-87
2022/11/25 03:47:13;;;;;;;0.60;0.60;;;;;;;9.16;77.10;100550.53;5153641;28;20037;-87
2022/11/25 03:49:44;;;;;;;0.68;0.68;;;;;;;9.19;77.00;100561.78;5150996;28;20033;-87
2022/11/25 03:52:14;;;;;;;0.22;0.22;;;;;;;9.17;77.31;100558.38;5181160;28;20054;-87
2022/11/25 03:54:45;;;;;;;0.68;0.68;;;;;;;9.24;76.74;100567.81;5166616;28;20045;-86
2022/11/25 03:57:16;;;;;;;0.52;0.52;;;;;;;9.21;76.95;100564.41;5159173;28;20030;-87
2022/11/25 03:59:46;;;;;;;0.30;0.30;;;;;;;9.21;76.73;100570.47;5152549;28;20618;-86
2022/11/25 04:02:17;;;;;;;1.08;0.80;;;;;;;9.25;77.07;100571.25;5168915;28;20034;-87
2022/11/25 04:04:47;;;;;;;0.30;0.30;;;;;;;9.26;76.99;100573.00;5161920;28;20439;-86
2022/11/25 04:07:18;;;;;;;0.90;0.60;;;;;;;9.20;77.15;100567.91;5189154;28;20061;-87
2022/11/25 04:09:48;;;;;;;0.47;0.47;;;;;;;9.19;77.60;100560.94;5172715;28;20030;-87
2022/11/25 04:15:08;;;;;;;0.30;0.30;;;;;;;9.23;77.55;100568.69;5173118;28;20158;-86
2022/11/25 04:17:38;;;;;;;0.40;0.40;;;;;;;9.21;77.56;100565.25;5167419;28;20049;-86
2022/11/25 04:20:11;;;;;;;7.25;1.85;;;;;;;9.31;76.85;100570.25;5169025;28;20103;-87
2022/11/25 04:22:42;;;;;;;2.22;2.03;;;;;;;9.34;76.86;100563.19;5176513;28;20035;-87
2022/11/25 04:25:12;;;;;;;0.70;0.60;;;;;;;9.27;76.63;100564.25;5155047;28;20061;-87
2022/11/25 04:27:43;;;;;;;0.28;0.28;;;;;;;9.27;76.79;100559.00;5162846;28;20034;-86
2022/11/25 04:30:14;;;;;;;0.40;0.40;;;;;;;9.28;76.87;100561.56;5141615;28;20594;-87
2022/11/25 04:32:44;;;;;;;0.50;0.50;;;;;;;9.26;77.46;100560.75;5155938;28;20068;-87
2022/11/25 04:35:15;;;;;;;0.73;0.73;;;;;;;9.27;77.02;100569.47;5150358;28;20077;-86
2022/11/25 04:37:45;;;;;;;0.30;0.30;;;;;;;9.28;76.75;100571.19;5161872;28;20042;-88
2022/11/25 04:40:16;;;;;;;0.30;0.30;;;;;;;9.29;77.36;100567.69;5162956;28;20053;-87
2022/11/25 04:42:46;;;;;;;0.22;0.22;;;;;;;9.29;76.85;100575.53;5165140;28;20038;-87
2022/11/25 04:45:17;;;;;;;0.30;0.30;;;;;;;9.27;77.04;100579.94;5162485;28;20559;-87
2022/11/25 04:47:48;;;;;;;0.30;0.30;;;;;;;9.32;76.55;100591.16;5179070;28;20756;-88
2022/11/25 04:50:21;;;;;;;0.32;0.32;;;;;;;9.28;77.31;100597.38;5161769;28;20117;-87
2022/11/25 04:52:51;;;;;;;0.30;0.30;;;;;;;9.27;77.88;100596.50;5165015;28;20038;-87
2022/11/25 04:55:21;;;;;;;0.60;0.60;;;;;;;9.27;77.08;100599.13;5162988;28;20038;-88
2022/11/25 04:57:52;;;;;;;0.63;0.63;;;;;;;9.26;77.19;100597.41;5165588;28;20030;-87
2022/11/25 05:00:23;;;;;;;0.30;0.30;;;;;;;9.27;77.60;100593.03;5195237;28;20046;-87
2022/11/25 05:02:53;;;;;;;0.30;0.30;;;;;;;9.26;78.07;100599.16;5167468;28;20053;-87
2022/11/25 05:05:24;;;;;;;3.60;0.88;;;;;;;9.23;79.08;100601.84;5167577;28;20046;-87
2022/11/25 05:07:56;;;;;;;0.30;0.30;;;;;;;9.25;77.77;100598.31;5165361;28;20030;-86
2022/11/25 05:10:26;;;;;;;0.75;0.75;;;;;;;9.20;78.52;100599.31;5163250;28;20065;-86
2022/11/25 05:12:56;;;;;;;5.18;1.85;;;;;;;9.23;77.91;100610.59;5164513;28;20038;-87
2022/11/25 05:15:27;;;;;;;0.73;0.68;;;;;;;9.24;78.00;100616.66;5162786;28;20038;-86
2022/11/25 05:17:57;;;;;;;0.40;0.40;;;;;;;9.23;77.48;100617.56;5164188;28;20072;-87
2022/11/25 05:20:28;;;;;;;0.40;0.40;;;;;;;9.25;77.35;100619.28;5164058;28;20125;-87
2022/11/25 05:22:58;;;;;;;0.63;0.63;;;;;;;9.24;77.67;100616.66;5131060;28;20058;-87
2022/11/25 05:25:29;;;;;;;0.98;0.50;;;;;;;9.25;77.41;100624.50;5168043;28;20046;-88
2022/11/25 05:27:59;;;;;;;1.05;1.05;;;;;;;9.25;77.46;100619.28;5148484;28;20579;-87
2022/11/25 05:30:30;;;;;;;1.52;0.98;;;;;;;9.25;77.58;100621.88;5131762;28;20046;-87
2022/11/25 05:33:00;;;;;;;0.30;0.30;;;;;;;9.23;77.42;100636.75;5177691;28;20053;-87
2022/11/25 05:35:31;;;;;;;0.65;0.65;;;;;;;9.26;77.71;100625.34;5130687;28;20271;-88
2022/11/25 05:38:03;;;;;;;1.17;1.17;;;;;;;9.30;76.91;100627.00;5164469;28;20630;-87
2022/11/25 05:40:33;;;;;;;0.65;0.65;;;;;;;9.25;77.46;100634.09;5129480;28;20038;-87
2022/11/25 05:43:04;;;;;;;2.25;1.30;;;;;;;9.27;77.21;100635.78;5152989;28;20033;-87
2022/11/25 05:45:38;;;;;;;0.30;0.30;;;;;;;9.27;77.18;100638.41;5150052;28;20038;-87
2022/11/25 05:48:08;;;;;;;0.52;0.52;;;;;;;9.27;77.38;100638.41;5163513;28;20030;-86
2022/11/25 05:50:39;;;;;;;18.02;0.93;;;;;;;9.27;77.28;100632.31;5131843;28;20034;-87
2022/11/25 05:53:10;;;;;;;0.22;0.22;;;;;;;9.24;77.89;100642.84;5131794;28;20041;-88
2022/11/25 05:55:40;;;;;;;0.65;0.65;;;;;;;9.22;78.01;100639.41;5154566;28;20045;-87
2022/11/25 05:58:11;;;;;;;0.75;0.70;;;;;;;9.27;77.75;100637.56;5131592;28;20030;-86
2022/11/25 06:00:41;;;;;;;0.30;0.30;;;;;;;9.32;78.19;100643.53;5162785;28;20594;-88
2022/11/25 06:03:12;;;;;;;0.30;0.30;;;;;;;9.22;77.67;100649.88;5144380;28;20050;-87
2022/11/25 06:05:43;;;;;;;0.32;0.32;;;;;;;9.22;77.59;100647.25;5164126;28;20065;-87
2022/11/25 06:08:14;;;;;;;0.35;0.35;;;;;;;9.24;77.40;100650.69;5160686;28;20589;-87
2022/11/25 06:10:44;;;;;;;0.60;0.60;;;;;;;9.22;77.15;100660.34;5131303;28;20046;-87
2022/11/25 06:13:15;;;;;;;0.50;0.50;;;;;;;9.22;77.56;100660.34;5145187;28;20057;-88
2022/11/25 06:15:46;;;;;;;0.82;0.82;;;;;;;9.33;77.79;100663.59;5134926;28;20030;-88
2022/11/25 06:18:17;;;;;;;0.60;0.60;;;;;;;9.29;78.10;100667.19;5170262;28;20076;-87
2022/11/25 06:20:56;;;;;;;0.40;0.40;;;;;;;9.25;77.42;100674.25;5147504;28;20074;-86
2022/11/25 06:23:26;;;;;;;2.97;1.13;;;;;;;9.29;78.02;100668.03;5141581;28;20030;-88
2022/11/25 06:26:11;;;;;;;0.60;0.60;;;;;;;9.23;77.57;100677.78;5146558;28;20049;-87
2022/11/25 06:28:41;;;;;;;0.30;0.30;;;;;;;9.21;77.52;100682.19;5181474;28;20089;-87
2022/11/25 06:31:18;;;;;;;0.30;0.30;;;;;;;9.25;77.59;100678.59;5146339;28;20128;-86
2022/11/25 06:33:50;;;;;;;0.63;0.63;;;;;;;9.17;77.96;100684.03;5134482;28;20121;-87
2022/11/25 06:36:22;;;;;;;0.73;0.73;;;;;;;9.14;78.03;100690.16;5162484;28;20045;-87
2022/11/25 06:38:53;;;;;;;0.70;0.70;;;;;;;9.19;77.33;100697.06;5145394;28;20129;-86
2022/11/25 06:41:23;;;;;;;0.40;0.40;;;;;;;9.21;77.16;100695.28;5146818;28;20042;-88
2022/11/25 06:43:54;;;;;;;1.63;1.52;;;;;;;9.17;77.69;100694.50;5151021;28;20041;-87
2022/11/25 06:46:25;;;;;;;0.30;0.30;;;;;;;9.09;77.50;100697.28;5138023;28;20276;-87
2022/11/25 06:48:58;;;;;;;0.30;0.30;;;;;;;9.09;77.40;100702.50;5176964;28;20049;-87
2022/11/25 06:51:28;;;;;;;0.30;0.30;;;;;;;9.10;77.41;100703.34;5185861;28;20038;-87
2022/11/25 06:53:59;;;;;;;0.50;0.50;;;;;;;9.08;77.12;100706.00;5142331;28;20308;-86
2022/11/25 06:56:29;;;;;;;0.28;0.28;;;;;;;9.08;77.22;100705.16;5163674;28;20030;-87
2022/11/25 06:58:59;;;;;;;1.15;1.05;;;;;;;9.06;77.44;100715.66;5163622;28;20514;-87
2022/11/25 07:01:30;;;;;;;1.08;1.05;;;;;;;9.02;76.82;100711.38;5145137;28;20405;-87
2022/11/25 07:04:04;;;;;;;1.02;0.63;;;;;;;9.02;77.82;100711.38;5144044;28;20041;-87
2022/11/25 07:06:35;;;;;;;0.82;0.80;;;;;;;9.04;76.94;100713.97;5136552;28;20045;-87
2022/11/25 07:09:06;;;;;;;0.80;0.77;;;;;;;9.01;76.98;100720.13;5158690;28;20038;-86
2022/11/25 07:11:38;;;;;;;0.73;0.73;;;;;;;9.01;77.11;100714.03;5145240;28;20037;-85
2022/11/25 07:14:11;;;;;;;3.40;1.08;;;;;;;8.97;77.00;100728.91;5169200;28;20315;-85
2022/11/25 07:16:44;;;;;;;0.85;0.85;;;;;;;8.95;77.17;100730.72;5157762;28;20165;-85
2022/11/25 07:19:15;;;;;;;0.68;0.68;;;;;;;8.90;77.02;100730.81;5158481;28;20133;-85
2022/11/25 07:21:46;;;;;;;0.30;0.30;;;;;;;8.95;77.12;100736.81;5160011;28;20030;-85
2022/11/25 07:24:18;;;;;;;0.35;0.35;;;;;;;8.89;76.90;100742.16;5176188;28;20649;-86
2022/11/25 07:26:48;;;;;;;0.82;0.82;;;;;;;8.83;77.66;100747.53;5185541;28;20034;-86
2022/11/25 07:29:19;;;;;;;0.60;0.60;;;;;;;8.86;77.00;100749.22;5181336;28;20060;-84
2022/11/25 07:31:50;;;;;;;0.38;0.38;;;;;;;8.85;77.38;100760.56;5161312;28;20077;-84
2022/11/25 07:34:20;;;;;;;0.95;0.95;;;;;;;8.76;77.68;100756.41;5131683;28;20030;-83
2022/11/25 07:36:50;;;;;;;0.30;0.30;;;;;;;8.90;76.64;100761.34;5180201;28;20042;-83
2022/11/25 07:39:22;;;;;;;1.05;1.00;;;;;;;8.84;77.06;100764.97;5163587;28;20324;-84
2022/11/25 07:41:53;;;;;;;0.47;0.47;;;;;;;8.86;76.92;100767.53;5144730;28;20133;-84
2022/11/25 07:44:24;;;;;;;0.35;0.35;;;;;;;8.80;77.22;100774.59;5146619;28;20037;-84
2022/11/25 07:46:54;;;;;;;0.55;0.40;;;;;;;8.78;76.95;100781.63;5178087;28;20714;-84
2022/11/25 07:49:25;;;;;;;0.40;0.40;;;;;;;8.85;77.32;100784.13;5132213;28;20053;-83
2022/11/25 07:52:01;;;;;;;0.50;0.50;;;;;;;8.75;77.58;100789.53;5149192;28;20499;-83
2022/11/25 07:54:33;;;;;;;0.30;0.30;;;;;;;8.76;77.40;100788.63;5129006;28;20030;-85
2022/11/25 07:57:04;;;;;;;0.28;0.28;;;;;;;8.70;77.64;100794.00;5165966;28;20042;-83
2022/11/25 07:59:35;;;;;;;0.52;0.52;;;;;;;8.68;77.76;100782.69;5127717;28;20034;-86
2022/11/25 08:02:07;;;;;;;1.42;1.33;;;;;;;8.82;77.57;100795.50;5134665;28;20383;-88
2022/11/25 08:04:38;;;;;;;0.45;0.45;;;;;;;8.71;77.64;100793.09;5143712;28;20049;-88
2022/11/25 08:07:09;;;;;;;0.40;0.40;;;;;;;8.72;77.78;100800.03;5166363;28;20085;-88
2022/11/25 08:09:40;;;;;;;0.50;0.50;;;;;;;8.70;77.88;100804.44;5160641;28;20042;-88
2022/11/25 08:12:10;;;;;;;0.45;0.45;;;;;;;8.64;78.26;100808.03;5129610;28;20031;-86
2022/11/25 08:14:40;;;;;;;0.57;0.57;;;;;;;8.72;77.51;100818.34;5147411;28;20532;-87
2022/11/25 08:17:11;;;;;;;0.38;0.38;;;;;;;8.66;77.73;100821.97;5173680;28;20014;-87
2022/11/25 08:19:41;;;;;;;0.40;0.40;;;;;;;8.65;77.84;100832.41;5143505;28;20972;-86
2022/11/25 08:22:12;;;;;;;3.40;1.17;;;;;;;8.69;77.64;100834.13;5147106;28;20310;-86
2022/11/25 08:24:43;;;;;;;0.30;0.30;;;;;;;8.73;78.27;100829.69;5148231;28;20093;-85
2022/11/25 08:27:14;;;;;;;0.40;0.40;;;;;;;8.74;77.54;100834.03;5157956;28;20140;-86
2022/11/25 08:29:45;;;;;;;1.33;1.33;;;;;;;8.74;77.42;100832.25;5148588;28;20117;-86
2022/11/25 08:32:15;;;;;;;0.80;0.80;;;;;;;8.78;78.29;100836.56;5149084;28;20520;-87
2022/11/25 08:34:46;;;;;;;1.00;0.95;;;;;;;8.75;79.35;100841.84;5146274;28;20034;-87
2022/11/25 08:37:16;;;;;;;0.55;0.55;;;;;;;8.74;78.94;100842.72;5168527;28;20033;-88
2022/11/25 08:39:48;;;;;;;1.00;1.00;;;;;;;8.69;79.05;100844.56;5163396;28;20034;-88
2022/11/25 08:42:19;;;;;;;0.77;0.77;;;;;;;8.76;79.22;100847.97;5165194;28;20034;-87
2022/11/25 08:44:52;;;;;;;1.35;1.25;;;;;;;8.72;79.40;100847.13;5163292;28;20049;-87
2022/11/25 08:47:23;;;;;;;0.30;0.30;;;;;;;8.80;78.92;100847.00;5177227;28;20029;-87
2022/11/25 08:49:54;;;;;;;0.30;0.30;;;;;;;8.87;78.95;100853.00;5131948;28;20042;-87
2022/11/25 08:52:27;;;;;;;0.30;0.30;;;;;;;8.93;78.84;100855.50;5148179;28;20046;-87
2022/11/25 08:54:58;;;;;;;0.73;0.55;;;;;;;8.84;80.32;100858.28;5147677;28;20065;-86
2022/11/25 08:57:28;;;;;;;21.63;1.10;;;;;;;8.87;81.11;100855.63;5143482;28;20076;-86
2022/11/25 08:59:59;;;;;;;0.30;0.30;;;;;;;8.84;80.82;100858.28;5166094;28;20141;-87
2022/11/25 09:02:29;;;;;;;0.52;0.52;;;;;;;8.85;80.42;100849.53;5135134;28;20435;-86
2022/11/25 09:05:00;;;;;;;0.20;0.20;;;;;;;8.93;80.90;100863.34;5161952;28;20037;-86
2022/11/25 09:07:30;;;;;;;0.50;0.50;;;;;;;8.91;81.33;100870.34;5146527;28;20103;-86
2022/11/25 09:10:01;;;;;;;0.35;0.35;;;;;;;8.90;81.57;100869.50;5141036;28;20041;-86
2022/11/25 09:12:31;;;;;;;1.25;1.17;;;;;;;8.90;81.79;100879.09;5184734;28;20697;-87
2022/11/25 09:15:02;;;;;;;1.02;0.98;;;;;;;8.87;82.29;100872.16;5157511;28;20041;-87
2022/11/25 09:17:36;;;;;;;0.38;0.38;;;;;;;8.92;82.15;100880.81;5189094;28;20033;-86
2022/11/25 09:20:07;;;;;;;0.68;0.68;;;;;;;8.92;81.86;100879.94;5158700;28;20444;-86
2022/11/25 09:22:37;;;;;;;15.52;1.50;;;;;;;8.93;81.70;100874.66;5184473;28;20026;-86
2022/11/25 09:25:08;;;;;;;4.38;1.65;;;;;;;8.93;82.37;100879.03;5145231;28;20069;-87
2022/11/25 09:27:38;;;;;;;0.65;0.65;;;;;;;8.94;82.53;100888.63;5132316;28;20041;-86
2022/11/25 09:30:09;;;;;;;0.40;0.40;;;;;;;9.02;82.58;100888.47;5162591;28;20042;-86
2022/11/25 09:32:40;;;;;;;2.08;1.77;;;;;;;8.96;82.29;100899.94;5161738;28;20026;-86
2022/11/25 09:35:10;;;;;;;0.50;0.50;;;;;;;8.96;82.92;100897.31;5178452;28;20041;-87
2022/11/25 09:37:41;;;;;;;1.98;1.77;;;;;;;9.07;81.85;100903.22;5181576;28;20041;-87
2022/11/25 09:40:33;;;;;;;1.38;1.15;;;;;;;9.05;81.84;100915.44;5163990;28;20046;-87
2022/11/25 09:46:41;;;;;;;0.82;0.82;;;;;;;9.13;82.02;100916.19;5173313;28;20076;-86
2022/11/25 09:49:56;;;;;;;1.60;1.50;;;;;;;9.10;82.91;100924.09;5151939;28;20037;-87
2022/11/25 09:52:47;;;;;;;0.60;0.60;;;;;;;9.14;82.65;100928.38;5098308;28;20035;-86
2022/11/25 09:55:22;;;;;;;0.30;0.30;;;;;;;9.16;82.61;100927.50;5121112;28;20052;-86
2022/11/25 09:58:10;;;;;;;3.53;1.85;;;;;;;9.21;82.03;100930.91;5131904;28;20258;-87
2022/11/25 10:00:44;;;;;;;1.08;0.93;;;;;;;9.21;82.22;100933.53;5118609;28;20080;-87
2022/11/25 10:03:39;;;;;;;0.20;0.20;;;;;;;9.30;81.51;100935.97;5130709;28;20041;-86
2022/11/25 10:06:28;;;;;;;0.40;0.40;;;;;;;9.31;81.17;100932.44;5128144;28;20307;-87
2022/11/25 10:09:12;;;;;;;1.30;1.20;;;;;;;9.35;80.86;100928.91;5146338;28;20112;-87
2022/11/25 10:11:56;;;;;;;0.30;0.30;;;;;;;9.33;80.83;100941.16;5164039;28;20052;-88
2022/11/25 10:14:32;;;;;;;2.60;1.13;;;;;;;9.38;81.18;100944.53;5133505;28;20050;-88
2022/11/25 10:17:12;;;;;;;0.40;0.40;;;;;;;9.41;80.31;100951.50;5177698;28;20092;-87
2022/11/25 10:19:54;;;;;;;0.30;0.30;;;;;;;9.43;80.29;100952.31;5157665;28;20046;-86
2022/11/25 10:22:24;;;;;;;0.70;0.70;;;;;;;9.44;80.54;100957.53;5161167;28;20440;-86
2022/11/25 10:25:04;;;;;;;0.30;0.30;;;;;;;9.49;79.97;100956.56;5131293;28;20046;-87
2022/11/25 10:28:18;;;;;;;0.77;0.77;;;;;;;9.45;80.47;100953.16;5148739;28;20057;-86
2022/11/25 10:31:18;;;;;;;0.57;0.57;;;;;;;9.48;80.07;100966.19;5104711;28;20710;-87
2022/11/25 10:33:52;;;;;;;0.95;0.68;;;;;;;9.55;80.11;100970.44;5181478;28;20506;-88
2022/11/25 10:36:29;;;;;;;0.55;0.55;;;;;;;9.55;80.41;100982.66;5168620;28;20042;-87
2022/11/25 10:39:10;;;;;;;0.60;0.60;;;;;;;9.64;80.45;100977.22;5170148;28;20030;-86
2022/11/25 10:41:56;;;;;;;0.20;0.20;;;;;;;9.58;79.85;100982.59;5172097;28;20060;-87
2022/11/25 10:44:34;;;;;;;0.50;0.50;;;;;;;9.63;79.73;100980.75;5149136;28;20030;-87
2022/11/25 10:47:33;;;;;;;0.20;0.20;;;;;;;9.71;79.65;100983.22;5165789;28;20279;-87
2022/11/25 10:50:15;;;;;;;0.38;0.38;;;;;;;9.70;79.98;100989.38;5134766;28;20140;-87
2022/11/25 10:52:54;;;;;;;0.60;0.60;;;;;;;9.72;79.23;100991.06;5163318;28;20034;-87
2022/11/25 10:55:28;;;;;;;0.38;0.38;;;;;;;9.78;78.58;100992.69;5167483;28;20116;-88
2022/11/25 10:58:24;;;;;;;0.40;0.40;;;;;;;9.81;79.40;100991.78;5149744;28;20370;-87
2022/11/25 11:01:14;;;;;;;0.40;0.40;;;;;;;9.83;78.68;100997.84;5186473;28;20034;-86
2022/11/25 11:03:50;;;;;;;2.10;2.00;;;;;;;9.86;79.00;100997.81;5164462;28;20042;-86
2022/11/25 11:06:42;;;;;;;0.93;0.93;;;;;;;9.92;78.64;100992.44;5170076;28;20042;-86
2022/11/25 11:09:33;;;;;;;3.40;1.00;;;;;;;9.92;78.94;100997.69;5177788;28;20101;-85
2022/11/25 11:12:25;;;;;;;0.30;0.30;;;;;;;9.92;78.63;100997.69;5190827;28;20050;-84
2022/11/25 11:15:20;;;;;;;0.43;0.43;;;;;;;9.90;77.89;101015.19;5161869;28;20029;-84
2022/11/25 11:17:52;;;;;;;0.60;0.60;;;;;;;9.97;78.06;101011.53;5165956;28;20038;-86
2022/11/25 11:20:28;;;;;;;0.50;0.50;;;;;;;9.99;78.46;101020.25;5168852;28;20053;-86
2022/11/25 11:23:12;;;;;;;0.30;0.30;;;;;;;10.05;78.35;101019.25;5161936;28;20041;-85
2022/11/25 11:26:01;;;;;;;0.68;0.68;;;;;;;10.07;77.96;101026.19;5195507;28;20048;-86
2022/11/25 11:28:37;;;;;;;0.50;0.50;;;;;;;10.08;77.02;101020.06;5174359;28;20104;-85
2022/11/25 11:31:23;;;;;;;2.35;0.95;;;;;;;10.05;77.01;101021.88;5156862;28;20030;-86
2022/11/25 11:34:18;;;;;;;2.17;1.25;;;;;;;10.09;76.72;101023.53;5179373;28;20083;-86
2022/11/25 11:37:19;;;;;;;1.75;0.52;;;;;;;10.15;77.18;101027.81;5175597;28;20287;-85
2022/11/25 11:39:49;;;;;;;0.47;0.47;;;;;;;10.22;76.70;101029.41;5179205;28;21114;-86
2022/11/25 11:42:28;;;;;;;0.40;0.40;;;;;;;10.30;77.25;101027.47;5139268;28;20132;-87
2022/11/25 11:45:24;;;;;;;0.45;0.40;;;;;;;10.32;76.00;101032.72;5171868;28;20039;-87
2022/11/25 11:48:16;;;;;;;0.20;0.20;;;;;;;10.37;76.74;101026.47;5134711;28;20038;-86
2022/11/25 11:50:49;;;;;;;0.55;0.55;;;;;;;10.48;76.29;101035.88;5175242;28;20077;-86
2022/11/25 11:53:27;;;;;;;1.00;0.93;;;;;;;10.52;76.34;101034.94;5163155;28;20030;-86
2022/11/25 11:56:23;;;;;;;2.00;1.77;;;;;;;10.53;74.91;101041.91;5147208;28;20180;-85
2022/11/25 11:59:04;;;;;;;0.73;0.73;;;;;;;10.54;74.91;101043.63;5160925;28;20240;-86
2022/11/25 12:01:50;;;;;;;0.40;0.40;;;;;;;10.57;74.85;101042.72;5155670;28;20033;-87
2022/11/25 12:04:26;;;;;;;0.35;0.35;;;;;;;10.65;74.65;101041.63;5146508;28;20026;-86
2022/11/25 12:07:05;;;;;;;0.75;0.75;;;;;;;10.63;75.10;101048.66;5147489;28;20046;-86
2022/11/25 12:09:48;;;;;;;0.30;0.30;;;;;;;10.60;75.32;101048.75;5159110;28;20026;-85
2022/11/25 12:12:23;;;;;;;0.50;0.50;;;;;;;10.72;75.47;101060.75;5160318;28;20203;-85
2022/11/25 12:15:08;;;;;;;0.45;0.45;;;;;;;10.69;74.79;101063.41;5147439;28;20455;-86
2022/11/25 12:17:45;;;;;;;0.47;0.47;;;;;;;10.70;73.89;101071.25;5160789;28;20042;-86
2022/11/25 12:20:21;;;;;;;0.55;0.55;;;;;;;10.69;73.94;101069.56;5157542;28;20046;-87